• Join FlightAware (Why Join?)
  • Login
  • US Flag 
 
08:44PM EST


 

Airport Tracker/Info


-or-


 

Live Flight TrackerFlight Track Log ✈ SKQ225 ✈ 25-Apr-2013 ✈ KOSU - KSDF

Flight Track Log - Related Links

Times and Time Zones

All times are in EDT time to prevent confusion due to time zone crossing. See the SKQ225 flight status page for this flight to view local times or setup timezone preferences in your user account.

Time Position Orientation Groundspeed Altitude Reporting Facility
EDT Latitude Longitude Course Direction KTS MPH feet Rate Location/Type
01:46AM 40.0650 -83.0997 229° Southwest 143 165 1,500  Level Indianapolis Center
01:46AM 40.0581 -83.1100 229° Southwest 140 161 1,800 960 Climbing Indianapolis Center
01:47AM 40.0256 -83.1550 227° Southwest 145 167 3,000 900 Climbing Indianapolis Center
01:48AM 40.0147 -83.1692 225° Southwest 138 159 3,400 840 Climbing Indianapolis Center
01:48AM 39.9978 -83.1928 227° Southwest 144 166 3,900 960 Climbing Indianapolis Center
01:49AM 39.9875 -83.2083 229° Southwest 142 163 4,400 900 Climbing Indianapolis Center
01:49AM 39.9719 -83.2331 231° Southwest 146 168 4,800 900 Climbing Indianapolis Center
01:50AM 39.9597 -83.2489 225° Southwest 145 167 5,300 840 Climbing Indianapolis Center
01:50AM 39.9417 -83.2758 229° Southwest 154 177 5,700 660 Climbing Indianapolis Center
01:51AM 39.9303 -83.2917 227° Southwest 151 174 6,000 180 Climbing Indianapolis Center
01:51AM 39.9114 -83.3211 230° Southwest 177 204 5,900  Descending Indianapolis Center
01:52AM 39.8978 -83.3372 222° Southwest 161 185 6,000  Climbing Indianapolis Center
01:52AM 39.8764 -83.3686 228° Southwest 179 206 5,900  Descending Indianapolis Center
01:53AM 39.8633 -83.3875 228° Southwest 173 199 6,000  Climbing Indianapolis Center
01:53AM 39.8436 -83.4189 231° Southwest 182 209 5,900  Descending Indianapolis Center
01:54AM 39.8289 -83.4381 225° Southwest 179 206 6,000  Climbing Indianapolis Center
01:54AM 39.8111 -83.4639 228° Southwest 198 228 5,900  Descending Indianapolis Center
01:55AM 39.7939 -83.4878 227° Southwest 180 207 6,000  Climbing Indianapolis Center
01:55AM 39.7803 -83.5117 233° Southwest 175 201 5,900  Descending Indianapolis Center
01:56AM 39.7653 -83.5286 221° Southwest 179 206 6,000  Climbing Indianapolis Center
01:56AM 39.7456 -83.5589 230° Southwest 177 204 5,900  Descending Indianapolis Center
01:57AM 39.7311 -83.5772 224° Southwest 179 206 6,000 60 Climbing Indianapolis Center
01:57AM 39.7125 -83.6064 230° Southwest 180 207 6,000  Level Indianapolis Center
01:58AM 39.6981 -83.6250 225° Southwest 178 205 6,000  Level Indianapolis Center
01:58AM 39.6778 -83.6536 227° Southwest 179 206 6,000  Level Indianapolis Center
01:59AM 39.6636 -83.6739 228° Southwest 180 207 6,000  Level Indianapolis Center
01:59AM 39.6400 -83.7086 229° Southwest 179 206 6,000  Level Indianapolis Center
02:00AM 39.6294 -83.7222 225° Southwest 180 207 6,000  Level Indianapolis Center
02:00AM 39.6072 -83.7561 230° Southwest 181 208 6,000  Level Indianapolis Center
02:01AM 39.5958 -83.7708 225° Southwest 180 207 6,000  Level Indianapolis Center
02:02AM 39.5619 -83.8189 228° Southwest 179 206 6,000  Level Indianapolis Center
02:03AM 39.5283 -83.8672 228° Southwest 179 206 6,000  Level Indianapolis Center
02:04AM 39.4931 -83.9172 228° Southwest 183 211 6,000  Level Indianapolis Center
02:05AM 39.4592 -83.9661 228° Southwest 182 209 6,000  Level Indianapolis Center
02:06AM 39.4242 -84.0153 227° Southwest 183 211 6,000  Level Indianapolis Center
02:07AM 39.3908 -84.0633 228° Southwest 180 207 6,000  Level Indianapolis Center
02:08AM 39.3556 -84.1122 227° Southwest 182 209 6,000  Level Indianapolis Center
02:09AM 39.3217 -84.1608 228° Southwest 182 209 6,000  Level Indianapolis Center
02:10AM 39.2878 -84.2075 227° Southwest 178 205 6,000  Level Indianapolis Center
02:11AM 39.2528 -84.2581 228° Southwest 185 213 6,000  Level Indianapolis Center
02:12AM 39.2197 -84.3061 228° Southwest 180 207 6,000  Level Indianapolis Center
02:13AM 39.1839 -84.3544 226° Southwest 184 212 6,000  Level Indianapolis Center
02:14AM 39.1494 -84.4014 227° Southwest 181 208 6,000 -60 Level Indianapolis Center
02:15AM 39.1167 -84.4500 229° Southwest 182 209 5,900  Descending Cincinnati TRACON
02:16AM 39.0833 -84.5000 229° Southwest 180 207 6,000  Climbing Cincinnati TRACON
02:17AM 39.0500 -84.5500 229° Southwest 181 208 6,000  Level Cincinnati TRACON
02:18AM 39.0167 -84.6000 229° Southwest 179 206 6,000 -60 Level Cincinnati TRACON
02:19AM 38.9833 -84.6333 218° Southwest 179 206 5,900 -60 Descending Cincinnati TRACON
02:20AM 38.9500 -84.6833 229° Southwest 180 207 5,900  Level Cincinnati TRACON
02:21AM 38.9167 -84.7333 229° Southwest 180 207 6,000  Climbing Cincinnati TRACON
02:22AM 38.8667 -84.7833 218° Southwest 182 209 6,000 -60 Level Cincinnati TRACON
02:23AM 38.8444 -84.8261 236° Southwest 180 207 5,900  Descending Indianapolis Center
02:24AM 38.8100 -84.8722 226° Southwest 178 205 6,000  Climbing Indianapolis Center
02:25AM 38.7764 -84.9194 228° Southwest 178 205 6,000  Level Indianapolis Center
02:26AM 38.7408 -84.9683 227° Southwest 185 213 6,000 -60 Level Indianapolis Center
02:27AM 38.7067 -85.0150 227° Southwest 181 208 5,900 -60 Descending Indianapolis Center
02:28AM 38.6725 -85.0628 228° Southwest 181 208 5,900  Level Indianapolis Center
02:29AM 38.6378 -85.1106 227° Southwest 182 209 6,000  Climbing Indianapolis Center
02:30AM 38.6014 -85.1569 225° Southwest 183 211 5,900  Descending Indianapolis Center
02:31AM 38.5672 -85.2050 228° Southwest 183 211 6,000 60 Climbing Indianapolis Center
02:31AM 38.5561 -85.2211 229° Southwest 181 208 6,000  Level FAA TRACON SMA TRACON (SMA)
02:32AM 38.5450 -85.2350 224° Southwest 180 207 6,000  Level FAA TRACON SMA TRACON (SMA)
02:32AM 38.5344 -85.2497 227° Southwest 182 209 6,000 -300 Level FAA TRACON SMA TRACON (SMA)
02:32AM 38.5208 -85.2681 227° Southwest 184 212 5,800 -480 Descending FAA TRACON SMA TRACON (SMA)
02:33AM 38.5092 -85.2825 224° Southwest 188 216 5,700 -480 Descending FAA TRACON SMA TRACON (SMA)
02:33AM 38.4986 -85.2986 230° Southwest 192 221 5,500 -480 Descending FAA TRACON SMA TRACON (SMA)
02:33AM 38.4850 -85.3172 227° Southwest 191 220 5,400 -480 Descending FAA TRACON SMA TRACON (SMA)
02:34AM 38.4736 -85.3325 226° Southwest 190 219 5,200 -600 Descending FAA TRACON SMA TRACON (SMA)
02:34AM 38.4619 -85.3478 226° Southwest 192 221 5,000 -600 Descending FAA TRACON SMA TRACON (SMA)
02:34AM 38.4497 -85.3681 232° Southwest 190 219 4,800 -480 Descending FAA TRACON SMA TRACON (SMA)
02:35AM 38.4411 -85.3850 237° Southwest 187 215 4,700 -480 Descending FAA TRACON SMA TRACON (SMA)
02:35AM 38.4317 -85.4008 233° Southwest 185 213 4,500 -600 Descending FAA TRACON SMA TRACON (SMA)
02:35AM 38.4200 -85.4217 234° Southwest 187 215 4,300 -600 Descending FAA TRACON SMA TRACON (SMA)
02:36AM 38.4103 -85.4383 233° Southwest 189 217 4,100 -600 Descending FAA TRACON SMA TRACON (SMA)
02:36AM 38.4006 -85.4550 233° Southwest 192 221 3,900 -780 Descending FAA TRACON SMA TRACON (SMA)
02:36AM 38.3881 -85.4761 233° Southwest 193 222 3,600 -780 Descending FAA TRACON SMA TRACON (SMA)
02:37AM 38.3778 -85.4922 231° Southwest 192 221 3,400 -600 Descending FAA TRACON SMA TRACON (SMA)
02:37AM 38.3689 -85.5092 236° Southwest 187 215 3,200 -780 Descending FAA TRACON SMA TRACON (SMA)
02:37AM 38.3572 -85.5292 233° Southwest 184 212 2,900 -780 Descending FAA TRACON SMA TRACON (SMA)
02:38AM 38.3481 -85.5456 235° Southwest 184 212 2,700 -660 Descending FAA TRACON SMA TRACON (SMA)
02:38AM 38.3383 -85.5608 231° Southwest 182 209 2,500 -600 Descending FAA TRACON SMA TRACON (SMA)
02:38AM 38.3261 -85.5806 232° Southwest 183 211 2,300 -600 Descending FAA TRACON SMA TRACON (SMA)
02:39AM 38.3172 -85.5964 234° Southwest 181 208 2,100 -600 Descending FAA TRACON SMA TRACON (SMA)
02:39AM 38.3058 -85.6156 233° Southwest 177 204 1,900 -180 Descending FAA TRACON SMA TRACON (SMA)
02:39AM 38.2969 -85.6294 231° Southwest 169 194 2,000  Climbing FAA TRACON SMA TRACON (SMA)
02:40AM 38.2881 -85.6428 230° Southwest 162 186 1,900 -180 Descending FAA TRACON SMA TRACON (SMA)
02:40AM 38.2794 -85.6561 231° Southwest 158 182 1,900  Level FAA TRACON SMA TRACON (SMA)
02:40AM 38.2686 -85.6719 229° Southwest 155 178 1,900 120 Level FAA TRACON SMA TRACON (SMA)
02:41AM 38.2597 -85.6842 227° Southwest 154 177 2,000 120 Climbing FAA TRACON SMA TRACON (SMA)
02:41AM 38.2506 -85.6956 224° Southwest 151 174 2,000 -180 Level FAA TRACON SMA TRACON (SMA)
02:41AM 38.2378 -85.7078 217° Southwest 148 170 1,900 -480 Descending FAA TRACON SMA TRACON (SMA)
02:42AM 38.2281 -85.7164 215° Southwest 142 163 1,700 -780 Descending FAA TRACON SMA TRACON (SMA)
02:42AM 38.2167 -85.7261 214° Southwest 130 150 1,400 -780 Descending FAA TRACON SMA TRACON (SMA)
02:42AM 38.2078 -85.7322 208° Southwest 121 139 1,200 -780 Descending FAA TRACON SMA TRACON (SMA)
02:43AM 38.1983 -85.7342 189° South 116 133 900 -780 Descending FAA TRACON SMA TRACON (SMA)
02:43AM 38.1897 -85.7317 167° South 109 125 700 -600 Descending FAA TRACON SMA TRACON (SMA)